createdAt,value
2023-04-17T00:00:13.071Z,11.44
2023-04-17T00:02:41.236Z,11.40
2023-04-17T00:05:10.739Z,11.42
2023-04-17T00:07:41.697Z,11.38
2023-04-17T00:10:11.531Z,11.35
2023-04-17T00:12:40.139Z,11.35
2023-04-17T00:15:09.642Z,11.35
2023-04-17T00:17:37.731Z,11.27
2023-04-17T00:20:08.028Z,11.24
2023-04-17T00:22:36.425Z,11.15
2023-04-17T00:25:08.801Z,11.16
2023-04-17T00:27:40.961Z,11.13
2023-04-17T00:30:10.323Z,11.13
2023-04-17T00:32:38.317Z,11.12
2023-04-17T00:35:07.568Z,11.20
2023-04-17T00:37:36.674Z,11.10
2023-04-17T00:40:07.264Z,11.03
2023-04-17T00:42:35.525Z,11.04
2023-04-17T00:45:05.646Z,10.94
2023-04-17T00:47:34.624Z,11.05
2023-04-17T00:50:03.304Z,11.16
2023-04-17T00:52:31.651Z,11.19
2023-04-17T00:55:00.455Z,11.27
2023-04-17T00:57:30.556Z,11.39
2023-04-17T00:59:58.897Z,11.36
2023-04-17T01:02:27.402Z,11.34
2023-04-17T01:04:55.528Z,11.34
2023-04-17T01:07:23.726Z,11.34
2023-04-17T01:09:51.764Z,11.01
2023-04-17T01:12:20.893Z,11.33
2023-04-17T01:14:51.106Z,11.34
2023-04-17T01:17:20.838Z,11.37
2023-04-17T01:19:50.897Z,11.33
2023-04-17T01:22:21.530Z,11.34
2023-04-17T01:24:51.142Z,11.33
2023-04-17T01:27:19.286Z,11.30
2023-04-17T01:29:48.173Z,11.31
2023-04-17T01:32:16.181Z,11.35
2023-04-17T01:34:44.357Z,11.22
2023-04-17T01:37:12.762Z,11.23
2023-04-17T01:39:40.852Z,11.33
2023-04-17T01:42:10.208Z,11.37
2023-04-17T01:44:39.131Z,11.52
2023-04-17T01:47:07.279Z,11.49
2023-04-17T01:49:35.599Z,11.47
2023-04-17T01:52:03.707Z,11.45
2023-04-17T01:54:31.653Z,11.58
2023-04-17T01:56:59.657Z,11.49
2023-04-17T01:59:29.557Z,11.60
2023-04-17T02:01:57.785Z,11.54
2023-04-17T02:04:26.211Z,11.46
2023-04-17T02:06:54.690Z,11.39
2023-04-17T02:09:22.789Z,11.36
2023-04-17T02:11:50.970Z,11.27
2023-04-17T02:14:19.799Z,11.24
2023-04-17T02:16:50.187Z,11.33
2023-04-17T02:19:18.158Z,11.17
2023-04-17T02:21:47.167Z,10.99
2023-04-17T02:24:15.510Z,11.04
2023-04-17T02:26:43.677Z,10.96
2023-04-17T02:29:12.530Z,10.95
2023-04-17T02:31:41.631Z,10.60
2023-04-17T02:34:11.343Z,10.76
2023-04-17T02:36:39.763Z,10.74
2023-04-17T02:39:08.016Z,10.75
2023-04-17T02:41:36.113Z,10.42
2023-04-17T02:44:04.620Z,10.57
2023-04-17T02:46:32.758Z,10.53
2023-04-17T02:49:00.939Z,10.43
2023-04-17T02:51:31.106Z,10.37
2023-04-17T02:53:59.386Z,10.40
2023-04-17T02:56:27.582Z,10.31
2023-04-17T02:58:56.137Z,10.33
2023-04-17T03:01:24.282Z,10.28
2023-04-17T03:03:53.003Z,10.25
2023-04-17T03:06:21.762Z,10.24
2023-04-17T03:08:51.587Z,10.21
2023-04-17T03:11:20.088Z,10.26
2023-04-17T03:13:48.325Z,10.33
2023-04-17T03:16:16.623Z,10.24
2023-04-17T03:18:44.800Z,10.21
2023-04-17T03:21:13.299Z,10.22
2023-04-17T03:23:41.498Z,10.16
2023-04-17T03:26:10.981Z,10.18
2023-04-17T03:28:39.142Z,10.18
2023-04-17T03:31:07.394Z,10.17
2023-04-17T03:33:35.435Z,10.17
2023-04-17T03:36:03.843Z,10.20
2023-04-17T03:38:31.796Z,10.27
2023-04-17T03:41:00.099Z,10.24
2023-04-17T03:43:29.564Z,10.20
2023-04-17T03:45:57.752Z,10.21
2023-04-17T03:48:25.885Z,10.30
2023-04-17T03:50:54.046Z,10.34
2023-04-17T03:53:22.309Z,10.31
2023-04-17T03:55:50.619Z,10.36
2023-04-17T03:58:18.627Z,10.37
2023-04-17T04:00:48.995Z,10.13
2023-04-17T04:03:17.079Z,10.38
2023-04-17T04:05:45.127Z,10.47
2023-04-17T04:08:13.375Z,10.29
2023-04-17T04:10:44.327Z,10.43
2023-04-17T04:13:13.218Z,10.46
2023-04-17T04:15:41.440Z,10.49
2023-04-17T04:18:12.636Z,10.50
2023-04-17T04:20:40.635Z,10.43
2023-04-17T04:23:08.668Z,10.33
2023-04-17T04:25:36.768Z,10.35
2023-04-17T04:28:06.441Z,10.28
2023-04-17T04:30:36.003Z,10.25
2023-04-17T04:33:06.119Z,10.31
2023-04-17T04:35:38.223Z,10.31
2023-04-17T04:38:06.845Z,10.12
2023-04-17T04:40:39.309Z,10.23
2023-04-17T04:43:07.748Z,10.23
2023-04-17T04:45:35.862Z,10.13
2023-04-17T04:48:04.636Z,10.19
2023-04-17T04:50:32.621Z,10.18
2023-04-17T04:53:02.019Z,10.20
2023-04-17T04:55:30.951Z,10.21
2023-04-17T04:57:58.854Z,10.22
2023-04-17T05:00:27.270Z,10.28
2023-04-17T05:02:55.430Z,10.31
2023-04-17T05:05:23.799Z,10.35
2023-04-17T05:07:53.534Z,10.38
2023-04-17T05:10:23.253Z,10.44
2023-04-17T05:12:51.647Z,10.48
2023-04-17T05:15:20.029Z,10.68
2023-04-17T05:17:48.117Z,10.88
2023-04-17T05:20:18.946Z,10.93
2023-04-17T05:22:47.234Z,10.97
2023-04-17T05:25:16.350Z,11.03
2023-04-17T05:27:46.542Z,11.07
2023-04-17T05:30:15.931Z,11.10
2023-04-17T05:32:44.048Z,10.55
2023-04-17T05:35:12.385Z,10.90
2023-04-17T05:37:40.751Z,10.83
2023-04-17T05:40:10.430Z,10.73
2023-04-17T05:42:38.763Z,10.75
2023-04-17T05:45:09.306Z,10.83
2023-04-17T05:47:38.543Z,10.92
2023-04-17T05:50:08.338Z,10.94
2023-04-17T05:52:38.828Z,10.88
2023-04-17T05:55:08.490Z,10.92
2023-04-17T05:57:36.499Z,10.99
2023-04-17T06:00:10.735Z,11.07
2023-04-17T06:02:41.271Z,11.13
2023-04-17T06:05:10.306Z,11.18
2023-04-17T06:07:38.867Z,11.29
2023-04-17T06:10:08.827Z,11.32
2023-04-17T06:12:37.281Z,11.45
2023-04-17T06:15:07.458Z,11.49
2023-04-17T06:17:37.121Z,11.57
2023-04-17T06:20:10.337Z,11.64
2023-04-17T06:22:39.251Z,11.57
2023-04-17T06:25:08.600Z,11.38
2023-04-17T06:27:37.240Z,11.52
2023-04-17T06:30:06.974Z,11.55
2023-04-17T06:32:35.276Z,11.57
2023-04-17T06:35:03.994Z,11.59
2023-04-17T06:37:33.798Z,11.64
2023-04-17T06:40:02.046Z,11.70
2023-04-17T06:42:33.998Z,11.68
2023-04-17T06:45:02.235Z,11.73
2023-04-17T06:47:30.323Z,11.75
2023-04-17T06:50:00.222Z,11.82
2023-04-17T06:52:28.201Z,11.92
2023-04-17T06:54:58.021Z,11.55
2023-04-17T06:57:26.310Z,12.17
2023-04-17T06:59:54.259Z,12.25
2023-04-17T07:02:22.714Z,12.42
2023-04-17T07:04:51.106Z,12.47
2023-04-17T07:07:19.150Z,12.74
2023-04-17T07:09:48.254Z,12.67
2023-04-17T07:12:20.022Z,12.67
2023-04-17T07:14:47.904Z,12.74
2023-04-17T07:17:16.059Z,12.75
2023-04-17T07:19:45.071Z,12.67
2023-04-17T07:22:13.433Z,12.78
2023-04-17T07:24:41.380Z,12.92
2023-04-17T07:27:09.521Z,13.31
2023-04-17T07:29:40.030Z,13.45
2023-04-17T07:32:08.053Z,13.43
2023-04-17T07:34:37.808Z,13.38
2023-04-17T07:37:06.383Z,13.26
2023-04-17T07:39:34.452Z,13.28
2023-04-17T07:42:06.460Z,13.29
2023-04-17T07:44:34.701Z,13.38
2023-04-17T07:47:04.307Z,13.40
2023-04-17T07:49:32.626Z,13.26
2023-04-17T07:52:03.175Z,13.13
2023-04-17T07:54:32.573Z,13.18
2023-04-17T07:57:03.674Z,13.15
2023-04-17T07:59:31.916Z,13.06
2023-04-17T08:02:00.091Z,13.30
2023-04-17T08:04:29.750Z,13.52
2023-04-17T08:06:58.065Z,13.70
2023-04-17T08:09:26.514Z,13.97
2023-04-17T08:11:57.888Z,13.93
2023-04-17T08:14:26.937Z,13.62
2023-04-17T08:16:54.833Z,14.08
2023-04-17T08:19:22.866Z,14.13
2023-04-17T08:21:52.250Z,13.72
2023-04-17T08:24:20.307Z,13.60
2023-04-17T08:26:51.870Z,13.50
2023-04-17T08:29:20.049Z,13.41
2023-04-17T08:31:48.068Z,13.44
2023-04-17T08:34:15.984Z,13.31
2023-04-17T08:36:44.517Z,13.34
2023-04-17T08:39:15.189Z,13.30
2023-04-17T08:41:50.326Z,13.21
2023-04-17T08:44:21.414Z,13.26
2023-04-17T08:46:52.909Z,13.26
2023-04-17T08:49:21.262Z,13.48
2023-04-17T08:51:49.163Z,13.39
2023-04-17T08:54:19.895Z,13.32
2023-04-17T08:56:48.002Z,13.45
2023-04-17T08:59:17.282Z,13.64
2023-04-17T09:02:03.608Z,13.70
2023-04-17T09:04:40.510Z,13.64
2023-04-17T09:07:10.111Z,13.99
2023-04-17T09:09:50.276Z,14.40
2023-04-17T09:12:18.955Z,14.60
2023-04-17T09:14:47.019Z,14.91
2023-04-17T09:17:17.415Z,15.12
2023-04-17T09:20:10.607Z,15.33
2023-04-17T09:22:40.368Z,15.45
2023-04-17T09:25:18.741Z,15.32
2023-04-17T09:27:47.448Z,14.71
2023-04-17T09:30:15.770Z,14.29
2023-04-17T09:32:44.205Z,13.97
2023-04-17T09:35:12.508Z,14.02
2023-04-17T09:37:50.028Z,14.20
2023-04-17T09:40:20.419Z,14.26
2023-04-17T09:42:59.755Z,14.01
2023-04-17T09:45:33.483Z,13.95
2023-04-17T09:48:06.395Z,14.03
2023-04-17T09:50:36.421Z,13.98
2023-04-17T09:53:06.674Z,14.31
2023-04-17T09:55:38.317Z,14.70
2023-04-17T09:58:08.441Z,14.85
2023-04-17T10:00:38.017Z,15.21
2023-04-17T10:03:08.450Z,15.32
2023-04-17T10:05:37.503Z,15.72
2023-04-17T10:08:06.203Z,15.76
2023-04-17T10:10:37.534Z,15.90
2023-04-17T10:13:09.560Z,16.18
2023-04-17T10:15:37.975Z,16.39
2023-04-17T10:18:23.578Z,16.39
2023-04-17T10:21:00.137Z,16.67
2023-04-17T10:23:35.070Z,16.69
2023-04-17T10:26:37.984Z,16.01
2023-04-17T10:29:06.221Z,15.84
2023-04-17T10:32:14.013Z,15.91
2023-04-17T10:34:43.989Z,15.93
2023-04-17T10:37:15.490Z,15.82
2023-04-17T10:39:56.713Z,15.70
2023-04-17T10:42:28.049Z,15.31
2023-04-17T10:45:01.168Z,15.12
2023-04-17T10:47:34.199Z,15.07
2023-04-17T10:50:04.384Z,15.23
2023-04-17T10:52:45.132Z,15.18
2023-04-17T10:55:17.435Z,14.62
2023-04-17T10:57:59.892Z,14.98
2023-04-17T11:00:37.078Z,15.19
2023-04-17T11:03:08.080Z,15.49
2023-04-17T11:05:36.771Z,15.46
2023-04-17T11:08:04.817Z,15.28
2023-04-17T11:10:37.436Z,15.38
2023-04-17T11:13:07.189Z,15.42
2023-04-17T11:15:36.610Z,15.37
2023-04-17T11:18:05.462Z,15.53
2023-04-17T11:20:37.207Z,15.56
2023-04-17T11:23:06.852Z,15.27
2023-04-17T11:25:36.132Z,15.16
2023-04-17T11:28:08.282Z,15.04
2023-04-17T11:30:37.878Z,15.06
2023-04-17T11:33:07.855Z,15.18
2023-04-17T11:35:37.638Z,15.08
2023-04-17T11:38:17.965Z,14.88
2023-04-17T11:40:47.760Z,14.86
2023-04-17T11:43:18.005Z,14.91
2023-04-17T11:45:47.948Z,15.01
2023-04-17T11:48:17.036Z,14.96
2023-04-17T11:50:46.017Z,15.08
2023-04-17T11:53:15.924Z,14.96
2023-04-17T11:55:43.895Z,15.20
2023-04-17T11:58:14.079Z,15.25
2023-04-17T12:00:43.654Z,15.43
2023-04-17T12:03:38.729Z,15.52
2023-04-17T12:06:07.525Z,15.55
2023-04-17T12:08:45.112Z,15.97
2023-04-17T12:11:25.885Z,16.00
2023-04-17T12:13:54.679Z,15.89
2023-04-17T12:16:25.924Z,15.98
2023-04-17T12:18:54.338Z,15.87
2023-04-17T12:21:23.989Z,15.59
2023-04-17T12:23:52.763Z,15.91
2023-04-17T12:26:21.435Z,15.76
2023-04-17T12:28:49.611Z,15.70
2023-04-17T12:31:17.688Z,15.57
2023-04-17T12:33:47.821Z,15.60
2023-04-17T12:36:16.465Z,15.77
2023-04-17T12:38:44.485Z,15.69
2023-04-17T12:41:12.422Z,15.74
2023-04-17T12:43:40.397Z,15.58
2023-04-17T12:46:08.373Z,15.45
2023-04-17T12:48:36.337Z,15.40
2023-04-17T12:51:06.083Z,15.40
2023-04-17T12:53:34.483Z,15.27
2023-04-17T12:56:03.039Z,15.28
2023-04-17T12:58:31.286Z,15.30
2023-04-17T13:01:00.039Z,15.20
2023-04-17T13:03:28.137Z,15.48
2023-04-17T13:05:56.137Z,15.67
2023-04-17T13:08:25.406Z,15.92
2023-04-17T13:10:53.534Z,15.74
2023-04-17T13:13:21.484Z,15.57
2023-04-17T13:15:50.090Z,15.52
2023-04-17T13:18:18.046Z,15.62
2023-04-17T13:20:47.588Z,15.74
2023-04-17T13:23:16.668Z,15.87
2023-04-17T13:25:46.257Z,15.78
2023-04-17T13:28:14.559Z,15.86
2023-04-17T13:30:42.791Z,15.46
2023-04-17T13:33:11.043Z,15.40
2023-04-17T13:35:39.413Z,15.96
2023-04-17T13:38:08.232Z,15.89
2023-04-17T13:40:38.692Z,15.88
2023-04-17T13:43:09.179Z,15.76
2023-04-17T13:45:37.268Z,15.31
2023-04-17T13:48:05.708Z,15.21
2023-04-17T13:50:33.603Z,15.59
2023-04-17T13:53:01.905Z,15.70
2023-04-17T13:55:30.012Z,15.82
2023-04-17T13:57:58.714Z,16.12
2023-04-17T14:00:28.308Z,16.05
2023-04-17T14:02:56.366Z,15.88
2023-04-17T14:05:24.650Z,15.93
2023-04-17T14:07:52.707Z,15.30
2023-04-17T14:10:20.991Z,15.94
2023-04-17T14:12:49.478Z,16.09
2023-04-17T14:15:17.657Z,15.96
2023-04-17T14:17:47.782Z,16.14
2023-04-17T14:20:18.078Z,15.94
2023-04-17T14:22:47.207Z,15.82
2023-04-17T14:25:16.691Z,16.00
2023-04-17T14:27:44.923Z,15.85
2023-04-17T14:30:13.659Z,15.78
2023-04-17T14:32:41.738Z,15.91
2023-04-17T14:35:13.380Z,16.05
2023-04-17T14:37:42.026Z,15.99
2023-04-17T14:40:10.931Z,15.51
2023-04-17T14:42:51.287Z,15.60
2023-04-17T14:45:22.333Z,15.47
2023-04-17T14:47:50.739Z,15.32
2023-04-17T14:50:20.413Z,15.58
2023-04-17T14:52:48.391Z,15.60
2023-04-17T14:55:16.638Z,15.45
2023-04-17T14:57:44.779Z,15.35
2023-04-17T15:00:13.801Z,15.44
2023-04-17T15:02:42.002Z,15.21
2023-04-17T15:05:11.003Z,15.33
2023-04-17T15:07:40.353Z,15.41
2023-04-17T15:10:09.450Z,15.27
2023-04-17T15:12:37.387Z,15.43
2023-04-17T15:15:06.343Z,15.31
2023-04-17T15:17:37.509Z,14.90
2023-04-17T15:20:07.180Z,14.74
2023-04-17T15:22:35.262Z,14.98
2023-04-17T15:25:06.351Z,15.14
2023-04-17T15:27:34.407Z,15.07
2023-04-17T15:30:05.137Z,15.05
2023-04-17T15:32:35.759Z,14.90
2023-04-17T15:35:04.427Z,14.91
2023-04-17T15:37:32.978Z,14.94
2023-04-17T15:40:01.300Z,15.03
2023-04-17T15:42:30.819Z,15.12
2023-04-17T15:44:58.763Z,15.00
2023-04-17T15:47:27.048Z,14.81
2023-04-17T15:49:55.257Z,14.80
2023-04-17T15:52:24.599Z,14.79
2023-04-17T15:54:52.560Z,14.74
2023-04-17T15:57:21.073Z,14.75
2023-04-17T15:59:51.562Z,14.67
2023-04-17T16:02:19.791Z,14.70
2023-04-17T16:04:47.960Z,14.71
2023-04-17T16:07:17.174Z,14.59
2023-04-17T16:09:46.742Z,14.36
2023-04-17T16:12:15.057Z,14.52
2023-04-17T16:14:43.102Z,14.21
2023-04-17T16:17:12.625Z,14.43
2023-04-17T16:19:40.737Z,14.41
2023-04-17T16:22:08.715Z,14.39
2023-04-17T16:24:36.783Z,14.42
2023-04-17T16:27:05.166Z,14.43
2023-04-17T16:29:33.036Z,14.46
2023-04-17T16:32:01.054Z,14.43
2023-04-17T16:34:30.581Z,14.41
2023-04-17T16:36:58.647Z,14.38
2023-04-17T16:39:26.965Z,14.36
2023-04-17T16:41:56.317Z,14.28
2023-04-17T16:44:26.531Z,14.20
2023-04-17T16:47:11.907Z,14.22
2023-04-17T16:49:41.839Z,14.16
2023-04-17T16:52:10.181Z,14.13
2023-04-17T16:54:38.236Z,13.97
2023-04-17T16:57:06.797Z,13.81
2023-04-17T16:59:35.038Z,13.64
2023-04-17T17:02:03.090Z,13.60
2023-04-17T17:04:31.437Z,13.83
2023-04-17T17:07:01.102Z,13.78
2023-04-17T17:09:33.479Z,13.76
2023-04-17T17:12:01.584Z,13.71
2023-04-17T17:14:29.456Z,13.76
2023-04-17T17:16:57.538Z,13.80
2023-04-17T17:19:25.564Z,13.80
2023-04-17T17:21:55.298Z,13.81
2023-04-17T17:24:24.994Z,13.89
2023-04-17T17:26:53.060Z,13.76
2023-04-17T17:29:21.129Z,13.88
2023-04-17T17:31:49.332Z,13.80
2023-04-17T17:34:26.264Z,13.79
2023-04-17T17:36:56.067Z,13.72
2023-04-17T17:39:28.502Z,13.67
2023-04-17T17:41:58.579Z,13.55
2023-04-17T17:44:32.173Z,13.56
2023-04-17T17:47:00.151Z,13.63
2023-04-17T17:49:28.053Z,13.60
2023-04-17T17:51:56.615Z,13.25
2023-04-17T17:54:26.338Z,13.04
2023-04-17T17:56:54.358Z,13.06
2023-04-17T17:59:22.732Z,13.20
2023-04-17T18:01:50.710Z,13.18
2023-04-17T18:04:19.364Z,13.00
2023-04-17T18:06:48.096Z,12.97
2023-04-17T18:09:16.070Z,12.97
2023-04-17T18:11:45.639Z,12.80
2023-04-17T18:14:13.926Z,12.79
2023-04-17T18:16:43.154Z,12.88
2023-04-17T18:19:11.182Z,12.89
2023-04-17T18:21:39.885Z,12.99
2023-04-17T18:24:08.807Z,12.87
2023-04-17T18:26:36.715Z,12.54
2023-04-17T18:29:07.459Z,12.53
2023-04-17T18:31:38.559Z,12.39
2023-04-17T18:34:06.511Z,12.28
2023-04-17T18:36:34.980Z,12.29
2023-04-17T18:39:03.531Z,12.26
2023-04-17T18:41:31.912Z,12.08
2023-04-17T18:44:00.027Z,12.12
2023-04-17T18:46:30.554Z,12.10
2023-04-17T18:48:58.938Z,12.03
2023-04-17T18:51:27.203Z,12.08
2023-04-17T18:53:55.290Z,12.10
2023-04-17T18:56:24.077Z,12.06
2023-04-17T18:58:52.783Z,12.09
2023-04-17T19:01:21.027Z,11.99
2023-04-17T19:03:51.562Z,11.89
2023-04-17T19:06:19.939Z,11.80
2023-04-17T19:08:47.966Z,11.80
2023-04-17T19:11:16.246Z,11.75
2023-04-17T19:13:45.503Z,11.74
2023-04-17T19:16:14.142Z,10.97
2023-04-17T19:18:42.389Z,11.72
2023-04-17T19:21:11.870Z,11.85
2023-04-17T19:23:39.881Z,11.86
2023-04-17T19:26:09.211Z,11.91
2023-04-17T19:28:37.500Z,11.89
2023-04-17T19:31:06.580Z,11.98
2023-04-17T19:33:35.370Z,12.11
2023-04-17T19:36:04.345Z,12.21
2023-04-17T19:38:34.164Z,12.12
2023-04-17T19:41:24.934Z,12.06
2023-04-17T19:43:54.365Z,12.05
2023-04-17T19:46:23.627Z,12.07
2023-04-17T19:48:52.781Z,12.21
2023-04-17T19:51:21.135Z,12.18
2023-04-17T19:53:53.651Z,12.02
2023-04-17T19:56:22.358Z,11.88
2023-04-17T19:58:51.356Z,12.02
2023-04-17T20:01:20.125Z,12.12
2023-04-17T20:03:48.372Z,12.16
2023-04-17T20:06:16.441Z,12.12
2023-04-17T20:08:45.320Z,12.10
2023-04-17T20:11:19.403Z,12.10
2023-04-17T20:13:48.053Z,12.14
2023-04-17T20:16:16.170Z,12.09
2023-04-17T20:18:45.844Z,12.06
2023-04-17T20:21:13.995Z,12.10
2023-04-17T20:23:42.592Z,11.91
2023-04-17T20:26:11.868Z,12.00
2023-04-17T20:28:41.446Z,12.06
2023-04-17T20:31:09.674Z,12.03
2023-04-17T20:33:37.870Z,11.95
2023-04-17T20:36:07.171Z,11.88
2023-04-17T20:38:35.717Z,12.08
2023-04-17T20:41:04.702Z,12.30
2023-04-17T20:43:33.344Z,12.28
2023-04-17T20:46:03.296Z,12.53
2023-04-17T20:48:31.422Z,12.65
2023-04-17T20:51:05.530Z,12.69
2023-04-17T20:53:33.666Z,12.55
2023-04-17T20:56:01.605Z,12.75
2023-04-17T20:58:30.636Z,12.85
2023-04-17T21:01:01.626Z,12.88
2023-04-17T21:03:32.396Z,12.77
2023-04-17T21:06:00.871Z,12.67
2023-04-17T21:08:29.094Z,12.56
2023-04-17T21:10:57.169Z,12.53
2023-04-17T21:13:25.420Z,12.28
2023-04-17T21:15:53.598Z,12.50
2023-04-17T21:18:21.477Z,12.64
2023-04-17T21:20:51.025Z,12.50
2023-04-17T21:23:20.192Z,12.35
2023-04-17T21:25:48.602Z,12.19
2023-04-17T21:28:17.169Z,11.97
2023-04-17T21:30:45.279Z,12.04
2023-04-17T21:33:13.244Z,12.05
2023-04-17T21:35:41.482Z,12.20
2023-04-17T21:38:10.935Z,11.43
2023-04-17T21:40:50.224Z,12.27
2023-04-17T21:43:19.673Z,12.43
2023-04-17T21:45:48.013Z,12.32
2023-04-17T21:48:16.113Z,12.10
2023-04-17T21:50:44.198Z,11.18
2023-04-17T21:53:13.463Z,11.78
2023-04-17T21:55:41.647Z,11.71
2023-04-17T21:58:09.987Z,11.68
2023-04-17T22:00:38.058Z,11.68
2023-04-17T22:03:06.347Z,11.89
2023-04-17T22:05:34.287Z,12.35
2023-04-17T22:08:02.798Z,12.21
2023-04-17T22:10:32.209Z,12.24
2023-04-17T22:13:00.283Z,12.28
2023-04-17T22:15:28.381Z,12.31
2023-04-17T22:17:59.009Z,12.31
2023-04-17T22:20:27.280Z,12.25
2023-04-17T22:22:56.062Z,12.09
2023-04-17T22:25:24.012Z,12.02
2023-04-17T22:27:53.564Z,11.96
2023-04-17T22:30:22.816Z,11.99
2023-04-17T22:32:51.424Z,12.00
2023-04-17T22:35:20.267Z,12.12
2023-04-17T22:37:48.512Z,11.93
2023-04-17T22:40:16.617Z,12.00
2023-04-17T22:42:44.759Z,12.05
2023-04-17T22:45:14.069Z,12.18
2023-04-17T22:47:42.181Z,12.23
2023-04-17T22:50:11.960Z,12.29
2023-04-17T22:52:40.141Z,12.08
2023-04-17T22:55:08.656Z,11.93
2023-04-17T22:57:37.190Z,11.79
2023-04-17T23:00:09.108Z,11.86
2023-04-17T23:02:38.842Z,11.88
2023-04-17T23:05:08.320Z,11.97
2023-04-17T23:07:36.290Z,11.92
2023-04-17T23:10:04.562Z,11.77
2023-04-17T23:12:33.113Z,11.68
2023-04-17T23:15:01.092Z,11.83
2023-04-17T23:17:29.584Z,11.83
2023-04-17T23:20:00.371Z,11.86
2023-04-17T23:22:30.057Z,11.85
2023-04-17T23:25:00.521Z,11.58
2023-04-17T23:27:28.640Z,11.38
2023-04-17T23:29:56.788Z,11.28
2023-04-17T23:32:24.693Z,11.14
2023-04-17T23:34:53.024Z,11.00
2023-04-17T23:37:22.553Z,10.87
2023-04-17T23:39:50.413Z,10.75
2023-04-17T23:42:18.670Z,10.73
2023-04-17T23:44:46.742Z,10.70
2023-04-17T23:47:15.172Z,10.60
2023-04-17T23:49:43.435Z,10.55
2023-04-17T23:52:11.556Z,10.34
2023-04-17T23:54:41.097Z,10.50
2023-04-17T23:57:09.140Z,10.51
2023-04-17T23:59:37.264Z,10.24
